OEBA/ABT METAR and TAF weather

Enter ICAO airport designator
Station Type Date Time Source
OEBA METAR 2022/01/29 12:00 UTC NOAA

OEBA 291200Z 18014KT 9999 SCT030 20/14 Q1020 NOSIG


Station Type Date Time Source
OEBA Decoded METAR 2022/01/29 12:00 UTC NOAA

Al Baha, Saudi Arabia (OEBA) 20-18N 041-38E 1662M
Jan 29, 2022 - 07:00 AM EST / 2022.01.29 1200 UTC
Wind: from the S (180 degrees) at 16 MPH (14 KT):0
Visibility: greater than 7 mile(s):0
Sky conditions: partly cloudy
Temperature: 68 F (20 C)
Dew Point: 57 F (14 C)
Relative Humidity: 68%
Pressure (altimeter): 30.12 in. Hg (1020 hPa)
ob: OEBA 291200Z 18014KT 9999 SCT030 20/14 Q1020 NOSIG
cycle: 12

Station Type Date Time Source
OEBA TAF 2022/01/29 12:22 UTC NOAA

TAF OEBA 291100Z 2912/3018 19012KT 7000 SCT030
TEMPO 2912/2918 4000 DU
BECMG 2918/2920 12006KT FEW030
BECMG 3006/3008 20012KT

Example: see airport list